sensor_id;sensor_type;location;lat;lon;timestamp;pressure;altitude;pressure_sealevel;temperature;humidity
44198;BME280;30157;55.512;37.764;2023-02-12T00:00:06;98528.41;;;-2.42;100.00
44198;BME280;30157;55.512;37.764;2023-02-12T00:02:41;98530.06;;;-2.43;100.00
44198;BME280;30157;55.512;37.764;2023-02-12T00:05:06;98526.69;;;-2.42;100.00
44198;BME280;30157;55.512;37.764;2023-02-12T00:07:32;98517.41;;;-2.40;100.00
44198;BME280;30157;55.512;37.764;2023-02-12T00:09:58;98522.47;;;-2.41;100.00
44198;BME280;30157;55.512;37.764;2023-02-12T00:12:24;98498.47;;;-2.53;100.00
44198;BME280;30157;55.512;37.764;2023-02-12T00:14:49;98542.97;;;-2.35;100.00
44198;BME280;30157;55.512;37.764;2023-02-12T00:17:15;98542.97;;;-2.35;100.00
44198;BME280;30157;55.512;37.764;2023-02-12T00:19:40;98540.47;;;-2.33;100.00
44198;BME280;30157;55.512;37.764;2023-02-12T00:22:06;98484.47;;;-2.70;100.00
44198;BME280;30157;55.512;37.764;2023-02-12T00:24:34;98545.63;;;-2.30;100.00
44198;BME280;30157;55.512;37.764;2023-02-12T00:27:00;98453.63;;;-2.84;100.00
44198;BME280;30157;55.512;37.764;2023-02-12T00:29:25;98546.56;;;-2.27;100.00
44198;BME280;30157;55.512;37.764;2023-02-12T00:31:51;98553.50;;;-2.21;100.00
44198;BME280;30157;55.512;37.764;2023-02-12T00:34:19;98488.84;;;-2.64;100.00
44198;BME280;30157;55.512;37.764;2023-02-12T00:36:46;98539.09;;;-2.22;100.00
44198;BME280;30157;55.512;37.764;2023-02-12T00:39:11;98457.31;;;-2.73;100.00
44198;BME280;30157;55.512;37.764;2023-02-12T00:41:37;98555.41;;;-2.14;100.00
44198;BME280;30157;55.512;37.764;2023-02-12T00:44:03;98365.22;;;-3.31;100.00
44198;BME280;30157;55.512;37.764;2023-02-12T00:46:29;98546.75;;;-2.21;100.00
44198;BME280;30157;55.512;37.764;2023-02-12T00:48:55;98452.78;;;-2.83;100.00
44198;BME280;30157;55.512;37.764;2023-02-12T00:51:20;98560.69;;;-2.38;100.00
44198;BME280;30157;55.512;37.764;2023-02-12T00:53:46;98449.69;;;-3.03;100.00
44198;BME280;30157;55.512;37.764;2023-02-12T00:56:11;98520.03;;;-2.70;100.00
44198;BME280;30157;55.512;37.764;2023-02-12T00:58:37;98589.47;;;-2.39;100.00
44198;BME280;30157;55.512;37.764;2023-02-12T01:01:05;98630.47;;;-2.27;100.00
44198;BME280;30157;55.512;37.764;2023-02-12T01:03:31;98598.31;;;-2.57;100.00
44198;BME280;30157;55.512;37.764;2023-02-12T01:05:58;98605.91;;;-2.57;100.00
44198;BME280;30157;55.512;37.764;2023-02-12T01:08:24;98629.63;;;-2.56;100.00
44198;BME280;30157;55.512;37.764;2023-02-12T01:10:58;98564.56;;;-3.12;100.00
44198;BME280;30157;55.512;37.764;2023-02-12T01:13:24;98654.13;;;-2.60;100.00
44198;BME280;30157;55.512;37.764;2023-02-12T01:16:00;98627.28;;;-2.79;100.00
44198;BME280;30157;55.512;37.764;2023-02-12T01:18:26;98671.59;;;-2.71;100.00
44198;BME280;30157;55.512;37.764;2023-02-12T01:20:52;98668.81;;;-2.78;100.00
44198;BME280;30157;55.512;37.764;2023-02-12T01:23:18;98674.41;;;-2.89;100.00
44198;BME280;30157;55.512;37.764;2023-02-12T01:25:43;98664.72;;;-3.00;100.00
44198;BME280;30157;55.512;37.764;2023-02-12T01:28:10;98630.78;;;-3.31;100.00
44198;BME280;30157;55.512;37.764;2023-02-12T01:30:35;98691.66;;;-3.06;100.00
44198;BME280;30157;55.512;37.764;2023-02-12T01:33:01;98700.78;;;-3.12;100.00
44198;BME280;30157;55.512;37.764;2023-02-12T01:35:27;98712.63;;;-3.11;100.00
44198;BME280;30157;55.512;37.764;2023-02-12T01:37:52;98715.94;;;-3.14;100.00
44198;BME280;30157;55.512;37.764;2023-02-12T01:40:18;98734.41;;;-3.18;100.00
44198;BME280;30157;55.512;37.764;2023-02-12T01:42:44;98629.09;;;-3.84;100.00
44198;BME280;30157;55.512;37.764;2023-02-12T01:47:43;98651.88;;;-3.85;100.00
44198;BME280;30157;55.512;37.764;2023-02-12T01:50:15;98707.88;;;-3.53;100.00
44198;BME280;30157;55.512;37.764;2023-02-12T01:52:52;98777.34;;;-3.26;100.00
44198;BME280;30157;55.512;37.764;2023-02-12T01:55:19;98751.53;;;-3.38;99.92
44198;BME280;30157;55.512;37.764;2023-02-12T01:57:47;98765.22;;;-3.33;99.73
44198;BME280;30157;55.512;37.764;2023-02-12T02:00:19;98634.66;;;-4.20;99.53
44198;BME280;30157;55.512;37.764;2023-02-12T02:02:50;98658.34;;;-4.18;99.21
44198;BME280;30157;55.512;37.764;2023-02-12T02:05:27;98793.72;;;-3.42;100.00
44198;BME280;30157;55.512;37.764;2023-02-12T02:07:55;98815.72;;;-3.41;99.86
44198;BME280;30157;55.512;37.764;2023-02-12T02:10:21;98807.91;;;-3.47;99.91
44198;BME280;30157;55.512;37.764;2023-02-12T02:12:47;98722.78;;;-4.11;99.50
44198;BME280;30157;55.512;37.764;2023-02-12T02:15:32;98713.88;;;-4.24;99.95
44198;BME280;30157;55.512;37.764;2023-02-12T02:31:46;98840.09;;;-3.93;99.15
44198;BME280;30157;55.512;37.764;2023-02-12T02:34:28;98887.38;;;-3.71;98.95
44198;BME280;30157;55.512;37.764;2023-02-12T02:37:22;98882.03;;;-3.78;99.70
44198;BME280;30157;55.512;37.764;2023-02-12T02:39:54;98779.88;;;-4.44;99.57
44198;BME280;30157;55.512;37.764;2023-02-12T02:42:32;98916.03;;;-3.73;99.88
44198;BME280;30157;55.512;37.764;2023-02-12T02:45:16;98909.25;;;-3.74;100.00
44198;BME280;30157;55.512;37.764;2023-02-12T02:47:50;98881.34;;;-3.97;99.62
44198;BME280;30157;55.512;37.764;2023-02-12T02:50:21;98864.63;;;-4.14;99.25
44198;BME280;30157;55.512;37.764;2023-02-12T02:52:55;98879.25;;;-4.07;99.47
44198;BME280;30157;55.512;37.764;2023-02-12T02:55:24;98953.91;;;-3.78;98.96
44198;BME280;30157;55.512;37.764;2023-02-12T02:57:56;98906.69;;;-3.97;99.17
44198;BME280;30157;55.512;37.764;2023-02-12T03:00:27;98826.22;;;-4.46;98.29
44198;BME280;30157;55.512;37.764;2023-02-12T03:03:06;98920.97;;;-3.99;97.62
44198;BME280;30157;55.512;37.764;2023-02-12T03:05:39;98953.66;;;-3.84;97.63
44198;BME280;30157;55.512;37.764;2023-02-12T03:08:29;98969.13;;;-3.78;97.75
44198;BME280;30157;55.512;37.764;2023-02-12T03:11:04;98884.84;;;-4.37;97.48
44198;BME280;30157;55.512;37.764;2023-02-12T03:13:36;98977.31;;;-3.85;97.54
44198;BME280;30157;55.512;37.764;2023-02-12T03:16:11;98984.97;;;-3.83;97.76
44198;BME280;30157;55.512;37.764;2023-02-12T03:18:44;98994.00;;;-3.90;97.42
44198;BME280;30157;55.512;37.764;2023-02-12T03:21:16;98903.91;;;-4.47;97.13
44198;BME280;30157;55.512;37.764;2023-02-12T03:24:01;98988.34;;;-4.04;97.00
44198;BME280;30157;55.512;37.764;2023-02-12T03:26:44;98881.16;;;-4.66;97.55
44198;BME280;30157;55.512;37.764;2023-02-12T03:29:11;98885.59;;;-4.61;97.08
44198;BME280;30157;55.512;37.764;2023-02-12T03:35:05;99048.41;;;-3.82;97.28
44198;BME280;30157;55.512;37.764;2023-02-12T03:37:16;99041.59;;;-3.83;96.92
44198;BME280;30157;55.512;37.764;2023-02-12T03:40:14;98926.72;;;-4.66;96.24
44198;BME280;30157;55.512;37.764;2023-02-12T03:45:59;99065.84;;;-3.90;96.39
44198;BME280;30157;55.512;37.764;2023-02-12T03:48:53;99024.28;;;-4.14;96.58
44198;BME280;30157;55.512;37.764;2023-02-12T03:53:45;98973.94;;;-4.47;95.25
44198;BME280;30157;55.512;37.764;2023-02-12T03:56:14;99080.44;;;-3.84;95.22
44198;BME280;30157;55.512;37.764;2023-02-12T03:58:43;99044.69;;;-4.11;94.32
44198;BME280;30157;55.512;37.764;2023-02-12T04:01:10;99082.00;;;-3.88;94.86
44198;BME280;30157;55.512;37.764;2023-02-12T04:03:37;99097.22;;;-3.88;94.73
44198;BME280;30157;55.512;37.764;2023-02-12T04:06:03;99082.09;;;-4.06;95.03
44198;BME280;30157;55.512;37.764;2023-02-12T04:08:30;99067.50;;;-4.11;94.25
44198;BME280;30157;55.512;37.764;2023-02-12T04:11:19;99105.63;;;-3.89;93.78
44198;BME280;30157;55.512;37.764;2023-02-12T04:16:44;99118.97;;;-3.93;92.70
44198;BME280;30157;55.512;37.764;2023-02-12T04:19:18;98993.63;;;-4.81;92.77
44198;BME280;30157;55.512;37.764;2023-02-12T04:24:38;99154.13;;;-4.00;92.70
44198;BME280;30157;55.512;37.764;2023-02-12T04:27:34;99116.00;;;-4.23;91.96
44198;BME280;30157;55.512;37.764;2023-02-12T04:30:05;99152.34;;;-4.03;92.25
44198;BME280;30157;55.512;37.764;2023-02-12T04:32:40;99168.34;;;-4.04;92.57
44198;BME280;30157;55.512;37.764;2023-02-12T04:40:25;99168.25;;;-4.27;91.79
44198;BME280;30157;55.512;37.764;2023-02-12T04:42:52;99059.00;;;-4.92;92.31
44198;BME280;30157;55.512;37.764;2023-02-12T04:45:33;99179.78;;;-4.33;92.17
44198;BME280;30157;55.512;37.764;2023-02-12T04:47:59;99126.41;;;-4.56;92.45
44198;BME280;30157;55.512;37.764;2023-02-12T04:50:29;99158.88;;;-4.47;91.53
44198;BME280;30157;55.512;37.764;2023-02-12T04:53:00;99165.59;;;-4.48;91.92
44198;BME280;30157;55.512;37.764;2023-02-12T04:55:26;99204.16;;;-4.35;91.07
44198;BME280;30157;55.512;37.764;2023-02-12T04:57:52;99209.75;;;-4.43;91.61
44198;BME280;30157;55.512;37.764;2023-02-12T05:00:17;99155.97;;;-4.75;91.18
44198;BME280;30157;55.512;37.764;2023-02-12T05:02:43;99231.44;;;-4.30;90.75
44198;BME280;30157;55.512;37.764;2023-02-12T05:05:09;99210.78;;;-4.57;90.05
44198;BME280;30157;55.512;37.764;2023-02-12T05:07:34;99247.53;;;-4.29;90.23
44198;BME280;30157;55.512;37.764;2023-02-12T05:10:00;99120.63;;;-5.09;89.85
44198;BME280;30157;55.512;37.764;2023-02-12T05:12:29;99294.59;;;-4.34;89.89
44198;BME280;30157;55.512;37.764;2023-02-12T05:14:54;99278.50;;;-4.35;90.23
44198;BME280;30157;55.512;37.764;2023-02-12T05:17:23;99241.19;;;-4.57;91.07
44198;BME280;30157;55.512;37.764;2023-02-12T05:19:49;99276.78;;;-4.36;90.66
44198;BME280;30157;55.512;37.764;2023-02-12T05:22:16;99283.50;;;-4.36;90.27
44198;BME280;30157;55.512;37.764;2023-02-12T05:24:41;99208.66;;;-4.85;89.21
44198;BME280;30157;55.512;37.764;2023-02-12T05:27:07;99273.16;;;-4.59;89.63
44198;BME280;30157;55.512;37.764;2023-02-12T05:29:36;99261.88;;;-4.66;89.70
44198;BME280;30157;55.512;37.764;2023-02-12T05:32:02;99313.63;;;-4.43;89.58
44198;BME280;30157;55.512;37.764;2023-02-12T05:34:28;99290.69;;;-4.64;88.59
44198;BME280;30157;55.512;37.764;2023-02-12T05:36:54;99229.13;;;-4.99;88.61
44198;BME280;30157;55.512;37.764;2023-02-12T05:39:21;99335.13;;;-4.34;87.52
44198;BME280;30157;55.512;37.764;2023-02-12T05:41:47;99281.84;;;-4.72;88.23
44198;BME280;30157;55.512;37.764;2023-02-12T05:44:13;99355.97;;;-4.40;88.21
44198;BME280;30157;55.512;37.764;2023-02-12T05:46:40;99339.75;;;-4.62;87.67
44198;BME280;30157;55.512;37.764;2023-02-12T05:49:07;99303.16;;;-4.68;89.00
44198;BME280;30157;55.512;37.764;2023-02-12T05:51:33;99314.44;;;-4.62;88.22
44198;BME280;30157;55.512;37.764;2023-02-12T05:54:02;99307.03;;;-4.75;87.81
44198;BME280;30157;55.512;37.764;2023-02-12T05:56:30;99358.06;;;-4.31;87.48
44198;BME280;30157;55.512;37.764;2023-02-12T05:58:58;99368.13;;;-4.33;87.96
44198;BME280;30157;55.512;37.764;2023-02-12T06:01:36;99385.88;;;-4.33;88.78
44198;BME280;30157;55.512;37.764;2023-02-12T06:04:05;99339.31;;;-4.53;88.19
44198;BME280;30157;55.512;37.764;2023-02-12T06:06:31;99393.03;;;-4.24;89.05
44198;BME280;30157;55.512;37.764;2023-02-12T06:08:58;99172.63;;;-5.52;86.39
44198;BME280;30157;55.512;37.764;2023-02-12T06:11:24;99304.59;;;-4.74;86.46
44198;BME280;30157;55.512;37.764;2023-02-12T06:13:50;99415.28;;;-4.18;86.33
44198;BME280;30157;55.512;37.764;2023-02-12T06:16:20;99411.13;;;-4.16;86.21
44198;BME280;30157;55.512;37.764;2023-02-12T06:18:47;99397.03;;;-4.29;86.30
44198;BME280;30157;55.512;37.764;2023-02-12T06:21:14;99420.84;;;-4.26;87.21
44198;BME280;30157;55.512;37.764;2023-02-12T06:23:39;99439.41;;;-4.27;86.62
44198;BME280;30157;55.512;37.764;2023-02-12T06:26:05;99319.59;;;-4.95;87.21
44198;BME280;30157;55.512;37.764;2023-02-12T06:28:31;99451.41;;;-4.23;85.88
44198;BME280;30157;55.512;37.764;2023-02-12T06:30:57;99465.09;;;-4.19;86.87
44198;BME280;30157;55.512;37.764;2023-02-12T06:33:22;99469.22;;;-4.21;85.26
44198;BME280;30157;55.512;37.764;2023-02-12T06:35:48;99336.34;;;-4.97;84.26
44198;BME280;30157;55.512;37.764;2023-02-12T06:38:14;99476.38;;;-4.30;83.85
44198;BME280;30157;55.512;37.764;2023-02-12T06:40:39;99343.03;;;-4.99;83.99
44198;BME280;30157;55.512;37.764;2023-02-12T06:43:05;99345.56;;;-4.99;83.92
44198;BME280;30157;55.512;37.764;2023-02-12T06:45:32;99493.28;;;-4.13;83.54
44198;BME280;30157;55.512;37.764;2023-02-12T06:47:57;99497.19;;;-4.19;82.76
44198;BME280;30157;55.512;37.764;2023-02-12T06:50:23;99484.56;;;-4.36;82.75
44198;BME280;30157;55.512;37.764;2023-02-12T06:52:49;99371.34;;;-5.06;83.78
44198;BME280;30157;55.512;37.764;2023-02-12T06:55:15;99523.09;;;-4.25;81.90
44198;BME280;30157;55.512;37.764;2023-02-12T06:57:41;99513.75;;;-4.26;82.84
44198;BME280;30157;55.512;37.764;2023-02-12T07:00:07;99496.88;;;-4.60;81.75
44198;BME280;30157;55.512;37.764;2023-02-12T07:02:33;99505.78;;;-4.50;81.69
44198;BME280;30157;55.512;37.764;2023-02-12T07:04:58;99544.56;;;-4.35;81.38
44198;BME280;30157;55.512;37.764;2023-02-12T07:07:24;99551.50;;;-4.31;81.37
44198;BME280;30157;55.512;37.764;2023-02-12T07:09:50;99551.50;;;-4.31;80.34
44198;BME280;30157;55.512;37.764;2023-02-12T07:12:15;99496.63;;;-4.65;81.33
44198;BME280;30157;55.512;37.764;2023-02-12T07:14:41;99435.00;;;-4.98;79.00
44198;BME280;30157;55.512;37.764;2023-02-12T07:17:07;99406.06;;;-5.20;78.49
44198;BME280;30157;55.512;37.764;2023-02-12T07:19:33;99554.78;;;-4.33;78.96
44198;BME280;30157;55.512;37.764;2023-02-12T07:21:59;99557.09;;;-4.38;78.61
44198;BME280;30157;55.512;37.764;2023-02-12T07:24:25;99450.59;;;-5.07;78.49
44198;BME280;30157;55.512;37.764;2023-02-12T07:26:51;99516.34;;;-4.76;79.09
44198;BME280;30157;55.512;37.764;2023-02-12T07:29:16;99590.09;;;-4.36;77.78
44198;BME280;30157;55.512;37.764;2023-02-12T07:31:42;99576.41;;;-4.40;78.37
44198;BME280;30157;55.512;37.764;2023-02-12T07:34:08;99584.88;;;-4.40;76.87
44198;BME280;30157;55.512;37.764;2023-02-12T07:36:34;99483.25;;;-5.12;77.83
44198;BME280;30157;55.512;37.764;2023-02-12T07:39:00;99495.91;;;-5.12;78.33
44198;BME280;30157;55.512;37.764;2023-02-12T07:41:28;99622.03;;;-4.40;77.48
44198;BME280;30157;55.512;37.764;2023-02-12T07:43:58;99610.53;;;-4.33;77.80
44198;BME280;30157;55.512;37.764;2023-02-12T07:46:27;99630.81;;;-4.17;77.33
44198;BME280;30157;55.512;37.764;2023-02-12T07:48:58;99627.31;;;-4.19;76.08
44198;BME280;30157;55.512;37.764;2023-02-12T07:51:25;99587.56;;;-4.53;77.68
44198;BME280;30157;55.512;37.764;2023-02-12T07:53:52;99649.16;;;-4.38;76.98
44198;BME280;30157;55.512;37.764;2023-02-12T07:56:21;99662.66;;;-4.39;77.00
44198;BME280;30157;55.512;37.764;2023-02-12T07:58:50;99651.63;;;-4.39;77.16
44198;BME280;30157;55.512;37.764;2023-02-12T08:04:21;99663.13;;;-4.29;76.25
44198;BME280;30157;55.512;37.764;2023-02-12T08:06:49;99670.03;;;-4.27;76.59
44198;BME280;30157;55.512;37.764;2023-02-12T08:09:18;99629.66;;;-4.55;75.61
44198;BME280;30157;55.512;37.764;2023-02-12T08:11:44;99674.19;;;-4.27;75.16
44198;BME280;30157;55.512;37.764;2023-02-12T08:14:11;99674.34;;;-4.24;74.09
44198;BME280;30157;55.512;37.764;2023-02-12T08:16:39;99694.97;;;-4.34;75.39
44198;BME280;30157;55.512;37.764;2023-02-12T08:19:05;99674.97;;;-4.61;75.44
44198;BME280;30157;55.512;37.764;2023-02-12T08:21:32;99705.06;;;-4.51;76.55
44198;BME280;30157;55.512;37.764;2023-02-12T08:23:58;99700.41;;;-4.43;75.69
44198;BME280;30157;55.512;37.764;2023-02-12T08:26:29;99697.94;;;-4.42;74.61
44198;BME280;30157;55.512;37.764;2023-02-12T08:28:57;99718.94;;;-4.44;74.25
44198;BME280;30157;55.512;37.764;2023-02-12T08:31:36;99707.06;;;-4.45;74.09
44198;BME280;30157;55.512;37.764;2023-02-12T08:34:02;99704.69;;;-4.42;75.16
44198;BME280;30157;55.512;37.764;2023-02-12T08:36:34;99700.31;;;-4.28;73.86
44198;BME280;30157;55.512;37.764;2023-02-12T08:38:59;99711.91;;;-4.33;73.09
44198;BME280;30157;55.512;37.764;2023-02-12T08:41:27;99729.09;;;-4.44;73.44
44198;BME280;30157;55.512;37.764;2023-02-12T08:43:56;99627.47;;;-4.97;73.17
44198;BME280;30157;55.512;37.764;2023-02-12T08:46:24;99725.03;;;-4.41;73.26
44198;BME280;30157;55.512;37.764;2023-02-12T08:48:58;99624.16;;;-4.96;73.61
44198;BME280;30157;55.512;37.764;2023-02-12T08:51:27;99740.03;;;-4.29;73.19
44198;BME280;30157;55.512;37.764;2023-02-12T08:53:55;99725.44;;;-4.33;72.70
44198;BME280;30157;55.512;37.764;2023-02-12T08:56:22;99739.38;;;-4.25;72.44
44198;BME280;30157;55.512;37.764;2023-02-12T08:58:48;99731.09;;;-4.22;72.26
44198;BME280;30157;55.512;37.764;2023-02-12T09:01:17;99678.41;;;-4.44;71.01
44198;BME280;30157;55.512;37.764;2023-02-12T09:03:44;99526.06;;;-5.48;70.64
44198;BME280;30157;55.512;37.764;2023-02-12T09:06:10;99765.47;;;-4.11;70.79
44198;BME280;30157;55.512;37.764;2023-02-12T09:08:36;99765.66;;;-4.08;70.86
44198;BME280;30157;55.512;37.764;2023-02-12T09:11:04;99680.66;;;-4.65;70.32
44198;BME280;30157;55.512;37.764;2023-02-12T09:13:30;99725.38;;;-4.34;70.05
44198;BME280;30157;55.512;37.764;2023-02-12T09:15:59;99661.97;;;-4.67;70.16
44198;BME280;30157;55.512;37.764;2023-02-12T09:18:25;99634.06;;;-4.84;69.72
44198;BME280;30157;55.512;37.764;2023-02-12T09:20:50;99702.16;;;-4.42;69.47
44198;BME280;30157;55.512;37.764;2023-02-12T09:23:16;99773.97;;;-3.94;70.13
44198;BME280;30157;55.512;37.764;2023-02-12T09:25:44;99747.00;;;-4.25;69.96
44198;BME280;30157;55.512;37.764;2023-02-12T09:28:12;99736.44;;;-4.32;69.60
44198;BME280;30157;55.512;37.764;2023-02-12T09:30:39;99778.81;;;-3.98;69.76
44198;BME280;30157;55.512;37.764;2023-02-12T09:33:05;99688.84;;;-4.54;69.07
44198;BME280;30157;55.512;37.764;2023-02-12T09:35:35;99795.38;;;-4.05;69.37
44198;BME280;30157;55.512;37.764;2023-02-12T09:38:01;99774.81;;;-4.26;68.77
44198;BME280;30157;55.512;37.764;2023-02-12T09:40:35;99782.97;;;-4.15;69.05
44198;BME280;30157;55.512;37.764;2023-02-12T09:43:05;99810.47;;;-4.07;68.43
44198;BME280;30157;55.512;37.764;2023-02-12T09:45:48;99808.59;;;-3.94;69.22
44198;BME280;30157;55.512;37.764;2023-02-12T09:51:24;99823.38;;;-3.38;66.89
44198;BME280;30157;55.512;37.764;2023-02-12T09:54:00;99776.72;;;-3.89;66.22
44198;BME280;30157;55.512;37.764;2023-02-12T09:56:27;99813.69;;;-3.45;66.95
44198;BME280;30157;55.512;37.764;2023-02-12T09:58:58;99793.72;;;-3.55;65.25
44198;BME280;30157;55.512;37.764;2023-02-12T10:01:26;99810.13;;;-3.48;64.82
44198;BME280;30157;55.512;37.764;2023-02-12T10:03:53;99687.84;;;-4.09;64.61
44198;BME280;30157;55.512;37.764;2023-02-12T10:06:20;99834.13;;;-3.25;64.28
44198;BME280;30157;55.512;37.764;2023-02-12T10:08:53;99830.41;;;-3.32;64.05
44198;BME280;30157;55.512;37.764;2023-02-12T10:11:34;99838.75;;;-3.34;64.01
44198;BME280;30157;55.512;37.764;2023-02-12T10:14:45;99839.63;;;-3.17;63.68
44198;BME280;30157;55.512;37.764;2023-02-12T10:25:49;99853.72;;;-3.23;62.58
44198;BME280;30157;55.512;37.764;2023-02-12T10:28:18;99872.44;;;-3.21;61.87
44198;BME280;30157;55.512;37.764;2023-02-12T10:30:55;99859.69;;;-3.39;62.35
44198;BME280;30157;55.512;37.764;2023-02-12T10:33:27;99864.59;;;-3.25;62.80
44198;BME280;30157;55.512;37.764;2023-02-12T10:38:39;99799.09;;;-3.82;62.21
44198;BME280;30157;55.512;37.764;2023-02-12T10:41:09;99797.59;;;-3.62;62.27
44198;BME280;30157;55.512;37.764;2023-02-12T10:43:37;99849.13;;;-3.13;62.10
44198;BME280;30157;55.512;37.764;2023-02-12T10:46:03;99881.53;;;-2.91;62.25
44198;BME280;30157;55.512;37.764;2023-02-12T10:48:34;99886.47;;;-2.94;61.57
44198;BME280;30157;55.512;37.764;2023-02-12T10:53:44;99790.13;;;-3.26;61.40
44198;BME280;30157;55.512;37.764;2023-02-12T10:58:42;99896.31;;;-2.84;61.22
44198;BME280;30157;55.512;37.764;2023-02-12T11:01:21;99897.44;;;-2.95;61.56
44198;BME280;30157;55.512;37.764;2023-02-12T11:03:52;99913.47;;;-3.13;61.71
44198;BME280;30157;55.512;37.764;2023-02-12T11:06:21;99875.63;;;-3.58;62.63
44198;BME280;30157;55.512;37.764;2023-02-12T11:08:47;99926.09;;;-3.14;62.03
44198;BME280;30157;55.512;37.764;2023-02-12T11:11:20;99911.31;;;-3.05;61.78
44198;BME280;30157;55.512;37.764;2023-02-12T11:13:57;99898.31;;;-3.11;61.27
44198;BME280;30157;55.512;37.764;2023-02-12T11:16:35;99884.41;;;-3.18;61.13
44198;BME280;30157;55.512;37.764;2023-02-12T11:19:07;99899.97;;;-3.12;61.15
44198;BME280;30157;55.512;37.764;2023-02-12T11:21:34;99862.13;;;-3.24;61.02
44198;BME280;30157;55.512;37.764;2023-02-12T11:26:50;99933.66;;;-2.81;61.20
44198;BME280;30157;55.512;37.764;2023-02-12T11:29:20;99896.66;;;-3.11;60.45
44198;BME280;30157;55.512;37.764;2023-02-12T11:32:03;99917.91;;;-3.25;60.13
44198;BME280;30157;55.512;37.764;2023-02-12T11:34:30;99924.41;;;-3.30;60.56
44198;BME280;30157;55.512;37.764;2023-02-12T11:36:56;99945.69;;;-3.28;60.39
44198;BME280;30157;55.512;37.764;2023-02-12T11:39:23;99965.38;;;-3.08;61.11
44198;BME280;30157;55.512;37.764;2023-02-12T11:41:56;99946.63;;;-3.10;61.23
44198;BME280;30157;55.512;37.764;2023-02-12T11:44:33;99935.13;;;-3.19;60.77
44198;BME280;30157;55.512;37.764;2023-02-12T11:47:17;99953.88;;;-3.17;60.03
44198;BME280;30157;55.512;37.764;2023-02-12T11:52:49;99842.59;;;-3.91;60.49
44198;BME280;30157;55.512;37.764;2023-02-12T11:55:39;99934.13;;;-3.55;60.86
44198;BME280;30157;55.512;37.764;2023-02-12T12:00:43;99951.03;;;-3.55;60.99
44198;BME280;30157;55.512;37.764;2023-02-12T12:06:05;99882.53;;;-3.86;60.51
44198;BME280;30157;55.512;37.764;2023-02-12T12:11:19;100006.28;;;-3.34;61.02
44198;BME280;30157;55.512;37.764;2023-02-12T12:16:35;100028.50;;;-3.30;61.09
44198;BME280;30157;55.512;37.764;2023-02-12T12:19:26;99998.75;;;-3.33;60.99
44198;BME280;30157;55.512;37.764;2023-02-12T12:22:38;100028.91;;;-3.23;60.86
44198;BME280;30157;55.512;37.764;2023-02-12T12:39:05;100068.59;;;-3.40;61.88
44198;BME280;30157;55.512;37.764;2023-02-12T12:49:47;100090.00;;;-3.51;62.78
44198;BME280;30157;55.512;37.764;2023-02-12T13:00:52;100060.00;;;-4.03;65.16
44198;BME280;30157;55.512;37.764;2023-02-12T13:08:51;100108.72;;;-3.64;65.69
44198;BME280;30157;55.512;37.764;2023-02-12T13:11:48;100105.94;;;-3.68;65.76
44198;BME280;30157;55.512;37.764;2023-02-12T13:17:04;100123.69;;;-3.68;65.59
44198;BME280;30157;55.512;37.764;2023-02-12T13:22:17;100017.75;;;-4.32;65.46
44198;BME280;30157;55.512;37.764;2023-02-12T13:27:45;100117.34;;;-4.20;65.69
44198;BME280;30157;55.512;37.764;2023-02-12T13:30:36;100118.44;;;-4.30;66.33
44198;BME280;30157;55.512;37.764;2023-02-12T13:33:32;100150.09;;;-4.23;66.42
44198;BME280;30157;55.512;37.764;2023-02-12T13:36:05;100153.69;;;-4.19;67.03
44198;BME280;30157;55.512;37.764;2023-02-12T13:38:38;100154.25;;;-4.39;66.90
44198;BME280;30157;55.512;37.764;2023-02-12T13:41:07;100171.56;;;-4.31;66.65
44198;BME280;30157;55.512;37.764;2023-02-12T13:46:39;100160.53;;;-4.47;66.93
44198;BME280;30157;55.512;37.764;2023-02-12T13:49:36;100149.50;;;-4.47;66.68
44198;BME280;30157;55.512;37.764;2023-02-12T13:54:50;100161.50;;;-4.58;66.78
44198;BME280;30157;55.512;37.764;2023-02-12T13:57:19;100182.94;;;-4.53;67.50
44198;BME280;30157;55.512;37.764;2023-02-12T13:59:50;100162.63;;;-4.68;67.50
44198;BME280;30157;55.512;37.764;2023-02-12T14:05:13;100190.41;;;-4.83;68.02
44198;BME280;30157;55.512;37.764;2023-02-12T14:07:56;100064.38;;;-5.69;68.17
44198;BME280;30157;55.512;37.764;2023-02-12T14:10:23;100064.88;;;-5.75;68.59
44198;BME280;30157;55.512;37.764;2023-02-12T14:16:43;100197.13;;;-5.24;69.38
44198;BME280;30157;55.512;37.764;2023-02-12T14:25:00;100217.13;;;-5.40;69.53
44198;BME280;30157;55.512;37.764;2023-02-12T14:27:47;100224.63;;;-5.42;69.44
44198;BME280;30157;55.512;37.764;2023-02-12T14:30:23;100227.75;;;-5.46;69.51
44198;BME280;30157;55.512;37.764;2023-02-12T14:37:53;100132.13;;;-6.29;70.42
44198;BME280;30157;55.512;37.764;2023-02-12T14:45:54;100144.88;;;-6.27;70.83
44198;BME280;30157;55.512;37.764;2023-02-12T14:48:47;100196.97;;;-6.04;70.76
44198;BME280;30157;55.512;37.764;2023-02-12T14:51:25;100236.09;;;-5.85;71.07
44198;BME280;30157;55.512;37.764;2023-02-12T14:53:55;100222.53;;;-5.99;71.18
44198;BME280;30157;55.512;37.764;2023-02-12T14:56:23;100125.00;;;-6.60;71.39
44198;BME280;30157;55.512;37.764;2023-02-12T14:58:51;100227.75;;;-6.10;71.76
44198;BME280;30157;55.512;37.764;2023-02-12T15:01:27;100249.47;;;-6.00;71.65
44198;BME280;30157;55.512;37.764;2023-02-12T15:03:57;100128.13;;;-6.76;71.80
44198;BME280;30157;55.512;37.764;2023-02-12T15:06:38;100300.06;;;-5.86;71.88
44198;BME280;30157;55.512;37.764;2023-02-12T15:09:12;100288.09;;;-5.89;71.99
44198;BME280;30157;55.512;37.764;2023-02-12T15:11:44;100175.28;;;-6.63;72.13
44198;BME280;30157;55.512;37.764;2023-02-12T15:14:17;100298.00;;;-5.92;72.13
44198;BME280;30157;55.512;37.764;2023-02-12T15:17:01;100292.44;;;-6.00;72.30
44198;BME280;30157;55.512;37.764;2023-02-12T15:22:01;100191.34;;;-6.62;72.51
44198;BME280;30157;55.512;37.764;2023-02-12T15:24:29;100315.47;;;-5.95;72.66
44198;BME280;30157;55.512;37.764;2023-02-12T15:26:57;100324.63;;;-5.97;72.90
44198;BME280;30157;55.512;37.764;2023-02-12T15:29:27;100336.50;;;-5.96;72.99
44198;BME280;30157;55.512;37.764;2023-02-12T15:31:56;100282.63;;;-6.32;72.95
44198;BME280;30157;55.512;37.764;2023-02-12T15:34:26;100322.34;;;-6.06;73.08